createdAt,value
2022-12-20T00:01:25.114Z,5.45
2022-12-20T00:03:54.202Z,5.10
2022-12-20T00:06:22.895Z,4.88
2022-12-20T00:09:01.046Z,5.55
2022-12-20T00:11:29.209Z,5.55
2022-12-20T00:13:56.639Z,4.97
2022-12-20T00:16:26.434Z,5.43
2022-12-20T00:18:56.295Z,4.65
2022-12-20T00:21:23.700Z,5.00
2022-12-20T00:23:52.108Z,4.93
2022-12-20T00:26:21.712Z,4.97
2022-12-20T00:28:49.162Z,5.25
2022-12-20T00:31:18.343Z,5.07
2022-12-20T00:33:47.741Z,4.80
2022-12-20T00:36:15.489Z,4.75
2022-12-20T00:38:45.127Z,4.60
2022-12-20T00:43:41.498Z,4.75
2022-12-20T00:46:09.716Z,4.57
2022-12-20T00:48:36.943Z,4.85
2022-12-20T00:51:15.299Z,4.70
2022-12-20T00:53:43.365Z,4.68
2022-12-20T00:56:10.566Z,5.10
2022-12-20T00:58:40.409Z,4.80
2022-12-20T01:01:15.600Z,4.50
2022-12-20T01:03:42.878Z,4.38
2022-12-20T01:06:10.595Z,4.22
2022-12-20T01:08:38.059Z,5.63
2022-12-20T01:11:11.703Z,3.83
2022-12-20T01:13:41.029Z,3.80
2022-12-20T01:16:35.215Z,4.50
2022-12-20T01:19:02.680Z,4.57
2022-12-20T01:21:30.118Z,4.20
2022-12-20T01:23:57.420Z,4.22
2022-12-20T01:26:27.429Z,4.32
2022-12-20T01:28:56.530Z,3.85
2022-12-20T01:31:23.793Z,4.25
2022-12-20T01:33:52.627Z,4.30
2022-12-20T01:36:25.791Z,4.40
2022-12-20T01:38:58.169Z,4.03
2022-12-20T01:41:25.571Z,4.50
2022-12-20T01:43:59.138Z,4.05
2022-12-20T01:46:29.972Z,4.20
2022-12-20T01:49:02.769Z,4.53
2022-12-20T01:51:32.250Z,4.15
2022-12-20T01:56:30.537Z,4.70
2022-12-20T01:58:58.938Z,4.07
2022-12-20T02:01:26.132Z,4.05
2022-12-20T02:03:55.453Z,4.28
2022-12-20T02:06:24.841Z,3.88
2022-12-20T02:08:56.312Z,3.95
2022-12-20T02:11:40.880Z,4.30
2022-12-20T02:14:16.672Z,4.00
2022-12-20T02:17:25.378Z,3.42
2022-12-20T02:20:11.346Z,3.75
2022-12-20T02:23:09.503Z,3.75
2022-12-20T02:26:12.011Z,3.72
2022-12-20T02:29:09.638Z,4.00
2022-12-20T02:31:46.302Z,3.72
2022-12-20T02:34:14.115Z,3.65
2022-12-20T02:36:41.430Z,4.03
2022-12-20T02:39:12.776Z,3.47
2022-12-20T02:42:09.970Z,3.95
2022-12-20T02:45:00.157Z,4.43
2022-12-20T02:47:52.446Z,3.87
2022-12-20T02:50:36.672Z,3.95
2022-12-20T02:53:05.246Z,4.03
2022-12-20T02:55:38.503Z,4.03
2022-12-20T02:58:21.543Z,4.18
2022-12-20T03:00:51.090Z,4.13
2022-12-20T03:05:53.920Z,4.38
2022-12-20T03:08:22.801Z,3.75
2022-12-20T03:10:50.946Z,3.28
2022-12-20T03:13:18.362Z,4.15
2022-12-20T03:15:45.224Z,4.40
2022-12-20T03:18:12.256Z,4.43
2022-12-20T03:20:39.146Z,4.35
2022-12-20T03:23:06.642Z,4.05
2022-12-20T03:25:33.480Z,4.18
2022-12-20T03:28:00.474Z,4.85
2022-12-20T03:30:27.395Z,5.38
2022-12-20T03:32:54.150Z,4.93
2022-12-20T03:35:21.213Z,4.50
2022-12-20T03:37:48.033Z,4.65
2022-12-20T03:40:16.053Z,5.10
2022-12-20T03:42:43.569Z,5.28
2022-12-20T03:45:11.066Z,4.72
2022-12-20T03:47:38.032Z,5.35
2022-12-20T03:50:06.498Z,5.03
2022-12-20T03:52:33.605Z,5.13
2022-12-20T03:55:00.780Z,5.68
2022-12-20T03:57:27.909Z,5.00
2022-12-20T03:59:54.858Z,5.65
2022-12-20T04:02:22.734Z,5.40
2022-12-20T04:04:50.125Z,4.78
2022-12-20T04:07:16.977Z,5.50
2022-12-20T04:09:43.783Z,5.68
2022-12-20T04:12:10.618Z,5.38
2022-12-20T04:14:37.542Z,5.70
2022-12-20T04:17:04.768Z,5.13
2022-12-20T04:19:31.669Z,5.53
2022-12-20T04:22:04.596Z,4.90
2022-12-20T04:24:31.851Z,6.05
2022-12-20T04:26:58.716Z,5.55
2022-12-20T04:29:25.635Z,5.75
2022-12-20T04:31:52.483Z,5.50
2022-12-20T04:34:19.459Z,5.57
2022-12-20T04:36:46.377Z,5.75
2022-12-20T04:39:13.184Z,5.03
2022-12-20T04:41:40.122Z,6.20
2022-12-20T04:44:06.934Z,5.18
2022-12-20T04:46:33.826Z,5.88
2022-12-20T04:49:00.730Z,5.60
2022-12-20T04:51:28.516Z,5.38
2022-12-20T04:53:56.003Z,5.15
2022-12-20T04:56:26.118Z,5.70
2022-12-20T04:58:54.299Z,5.50
2022-12-20T05:01:22.119Z,4.95
2022-12-20T05:03:49.689Z,5.38
2022-12-20T05:06:17.529Z,5.30
2022-12-20T05:08:44.625Z,5.43
2022-12-20T05:11:11.838Z,5.00
2022-12-20T05:13:39.126Z,4.80
2022-12-20T05:16:06.594Z,5.00
2022-12-20T05:18:33.531Z,4.50
2022-12-20T05:21:20.348Z,4.35
2022-12-20T05:24:06.324Z,5.40
2022-12-20T05:26:36.427Z,5.18
2022-12-20T05:29:03.540Z,4.32
2022-12-20T05:31:30.432Z,4.78
2022-12-20T05:33:57.436Z,4.22
2022-12-20T05:36:24.262Z,4.13
2022-12-20T05:38:51.130Z,4.30
2022-12-20T05:41:18.044Z,4.22
2022-12-20T05:43:44.893Z,4.28
2022-12-20T05:46:11.856Z,4.13
2022-12-20T05:48:38.793Z,4.20
2022-12-20T05:51:05.975Z,3.90
2022-12-20T05:53:32.888Z,4.40
2022-12-20T05:56:01.353Z,4.28
2022-12-20T05:58:28.836Z,4.00
2022-12-20T06:00:56.400Z,4.30
2022-12-20T06:03:23.372Z,4.28
2022-12-20T06:05:50.293Z,4.97
2022-12-20T06:08:17.282Z,4.65
2022-12-20T06:10:44.125Z,4.63
2022-12-20T06:13:11.515Z,4.50
2022-12-20T06:15:38.642Z,4.15
2022-12-20T06:18:06.514Z,4.70
2022-12-20T06:20:36.708Z,4.70
2022-12-20T06:23:04.191Z,4.65
2022-12-20T06:25:31.711Z,4.95
2022-12-20T06:27:58.830Z,4.55
2022-12-20T06:30:31.835Z,4.70
2022-12-20T06:33:00.961Z,3.97
2022-12-20T06:35:28.245Z,4.50
2022-12-20T06:37:55.448Z,3.83
2022-12-20T06:40:22.574Z,3.92
2022-12-20T06:42:50.560Z,4.00
2022-12-20T06:45:20.566Z,3.75
2022-12-20T06:47:47.476Z,4.50
2022-12-20T06:50:14.394Z,4.85
2022-12-20T06:52:41.241Z,4.85
2022-12-20T06:55:08.480Z,3.85
2022-12-20T06:57:35.403Z,4.68
2022-12-20T07:00:02.571Z,4.95
2022-12-20T07:02:29.641Z,4.90
2022-12-20T07:04:56.631Z,5.88
2022-12-20T07:07:23.456Z,5.00
2022-12-20T07:09:50.305Z,5.25
2022-12-20T07:12:17.782Z,5.28
2022-12-20T07:14:44.674Z,5.60
2022-12-20T07:17:11.743Z,5.38
2022-12-20T07:19:38.629Z,5.35
2022-12-20T07:22:06.109Z,5.85
2022-12-20T07:24:34.198Z,6.05
2022-12-20T07:27:01.659Z,5.22
2022-12-20T07:29:29.149Z,5.25
2022-12-20T07:31:56.073Z,5.90
2022-12-20T07:34:23.201Z,6.18
2022-12-20T07:36:50.452Z,6.25
2022-12-20T07:39:17.424Z,6.32
2022-12-20T07:41:45.006Z,7.20
2022-12-20T07:44:12.244Z,6.03
2022-12-20T07:46:39.432Z,5.15
2022-12-20T07:49:06.397Z,6.60
2022-12-20T07:51:38.106Z,5.75
2022-12-20T07:54:26.804Z,5.18
2022-12-20T07:57:00.621Z,5.53
2022-12-20T07:59:39.916Z,4.90
2022-12-20T08:02:11.995Z,4.85
2022-12-20T08:04:39.180Z,4.80
2022-12-20T08:07:08.232Z,4.72
2022-12-20T08:09:39.197Z,4.85
2022-12-20T08:12:08.780Z,4.55
2022-12-20T08:14:36.154Z,4.40
2022-12-20T08:17:03.022Z,5.07
2022-12-20T08:19:32.546Z,4.15
2022-12-20T08:21:59.769Z,4.40
2022-12-20T08:24:26.761Z,4.43
2022-12-20T08:26:53.616Z,4.47
2022-12-20T08:29:21.182Z,4.53
2022-12-20T08:31:50.714Z,4.25
2022-12-20T08:34:19.031Z,3.95
2022-12-20T08:36:45.935Z,4.20
2022-12-20T08:39:12.772Z,4.25
2022-12-20T08:41:39.670Z,3.92
2022-12-20T08:44:07.220Z,4.43
2022-12-20T08:46:34.140Z,3.60
2022-12-20T08:49:01.143Z,4.00
2022-12-20T08:51:29.236Z,4.13
2022-12-20T08:53:56.328Z,3.90
2022-12-20T08:56:23.900Z,4.18
2022-12-20T08:58:50.904Z,3.70
2022-12-20T09:01:20.547Z,3.50
2022-12-20T09:03:48.713Z,4.00
2022-12-20T09:06:18.937Z,4.03
2022-12-20T09:08:46.058Z,4.07
2022-12-20T09:11:12.835Z,3.97
2022-12-20T09:13:44.133Z,4.43
2022-12-20T09:16:13.707Z,3.90
2022-12-20T09:18:40.918Z,3.88
2022-12-20T09:21:08.792Z,3.83
2022-12-20T09:23:37.249Z,3.40
2022-12-20T09:26:15.485Z,4.10
2022-12-20T09:28:43.791Z,3.53
2022-12-20T09:31:16.816Z,4.03
2022-12-20T09:33:44.691Z,3.75
2022-12-20T09:36:17.515Z,3.67
2022-12-20T09:38:45.398Z,3.70
2022-12-20T09:41:34.517Z,4.00
2022-12-20T09:44:16.062Z,3.95
2022-12-20T09:46:44.906Z,4.18
2022-12-20T09:49:16.677Z,3.63
2022-12-20T09:52:02.480Z,4.25
2022-12-20T09:54:38.028Z,19.05
2022-12-20T09:57:34.283Z,5.25
2022-12-20T10:00:01.203Z,3.97
2022-12-20T10:05:48.601Z,4.47
2022-12-20T10:08:43.767Z,5.28
2022-12-20T10:11:25.112Z,5.00
2022-12-20T10:14:20.935Z,5.63
2022-12-20T10:17:14.196Z,5.60
2022-12-20T10:19:50.096Z,5.32
2022-12-20T10:22:17.627Z,5.57
2022-12-20T10:25:02.954Z,5.78
2022-12-20T10:27:29.973Z,6.38
2022-12-20T10:29:57.373Z,5.30
2022-12-20T10:32:24.846Z,5.53
2022-12-20T10:35:16.591Z,6.18
2022-12-20T10:38:08.954Z,6.25
2022-12-20T10:43:43.535Z,5.53
2022-12-20T10:46:12.084Z,6.45
2022-12-20T10:48:41.691Z,5.88
2022-12-20T10:54:01.862Z,6.00
2022-12-20T10:56:35.253Z,6.60
2022-12-20T10:59:03.805Z,5.63
2022-12-20T11:01:35.493Z,6.60
2022-12-20T11:04:21.604Z,6.32
2022-12-20T11:06:48.435Z,6.10
2022-12-20T11:09:28.526Z,6.00
2022-12-20T11:12:03.065Z,6.35
2022-12-20T11:14:38.859Z,5.88
2022-12-20T11:17:43.650Z,5.68
2022-12-20T11:20:13.714Z,5.57
2022-12-20T11:22:46.660Z,5.63
2022-12-20T11:25:32.615Z,6.18
2022-12-20T11:28:21.812Z,6.53
2022-12-20T11:31:20.095Z,4.93
2022-12-20T11:33:53.056Z,5.55
2022-12-20T11:36:41.193Z,5.38
2022-12-20T11:39:32.401Z,5.55
2022-12-20T11:42:02.435Z,5.78
2022-12-20T11:45:09.297Z,6.43
2022-12-20T11:48:01.297Z,6.75
2022-12-20T11:50:40.310Z,6.57
2022-12-20T11:53:33.037Z,6.13
2022-12-20T11:56:05.379Z,6.30
2022-12-20T11:59:04.493Z,6.63
2022-12-20T12:01:41.897Z,6.30
2022-12-20T12:04:23.076Z,6.13
2022-12-20T12:07:19.396Z,7.05
2022-12-20T12:09:59.167Z,6.65
2022-12-20T12:12:43.415Z,6.18
2022-12-20T12:15:42.615Z,6.50
2022-12-20T12:18:21.189Z,7.00
2022-12-20T12:20:51.011Z,7.20
2022-12-20T12:23:23.811Z,6.03
2022-12-20T12:25:50.758Z,7.32
2022-12-20T12:28:20.664Z,6.88
2022-12-20T12:30:55.571Z,6.13
2022-12-20T12:33:41.503Z,7.38
2022-12-20T12:36:35.170Z,7.03
2022-12-20T12:39:10.935Z,6.43
2022-12-20T12:41:59.562Z,5.80
2022-12-20T12:44:47.602Z,6.97
2022-12-20T12:47:33.136Z,7.22
2022-12-20T12:50:00.019Z,7.07
2022-12-20T12:52:49.427Z,6.65
2022-12-20T12:55:49.621Z,6.72
2022-12-20T12:58:22.705Z,7.32
2022-12-20T13:00:51.341Z,7.80
2022-12-20T13:03:35.952Z,8.03
2022-12-20T13:06:28.437Z,8.00
2022-12-20T13:09:04.650Z,7.40
2022-12-20T13:11:46.669Z,7.63
2022-12-20T13:14:27.323Z,7.18
2022-12-20T13:17:14.464Z,8.20
2022-12-20T13:19:55.128Z,7.93
2022-12-20T13:22:24.176Z,8.02
2022-12-20T13:24:58.916Z,9.45
2022-12-20T13:27:40.462Z,7.63
2022-12-20T13:30:07.424Z,7.75
2022-12-20T13:32:56.955Z,8.38
2022-12-20T13:35:29.604Z,7.82
2022-12-20T13:38:11.711Z,9.88
2022-12-20T13:40:48.777Z,8.45
2022-12-20T13:43:24.430Z,7.82
2022-12-20T13:46:22.560Z,8.35
2022-12-20T13:49:03.687Z,8.60
2022-12-20T13:51:31.659Z,8.40
2022-12-20T13:54:01.968Z,8.90
2022-12-20T13:56:32.203Z,8.70
2022-12-20T13:59:21.927Z,9.43
2022-12-20T14:01:51.811Z,9.25
2022-12-20T14:04:20.011Z,9.20
2022-12-20T14:06:59.959Z,8.88
2022-12-20T14:09:37.903Z,9.75
2022-12-20T14:12:19.487Z,9.48
2022-12-20T14:14:51.431Z,9.75
2022-12-20T14:17:27.385Z,10.20
2022-12-20T14:20:15.143Z,10.52
2022-12-20T14:23:04.281Z,10.32
2022-12-20T14:25:34.513Z,11.60
2022-12-20T14:28:01.849Z,11.10
2022-12-20T14:30:36.602Z,10.00
2022-12-20T14:33:03.708Z,11.73
2022-12-20T14:35:30.673Z,10.23
2022-12-20T14:38:04.188Z,10.70
2022-12-20T14:40:31.084Z,9.43
2022-12-20T14:42:58.083Z,9.85
2022-12-20T14:45:28.590Z,10.18
2022-12-20T14:48:06.722Z,11.15
2022-12-20T14:50:36.704Z,11.90
2022-12-20T14:53:04.547Z,11.13
2022-12-20T14:55:44.294Z,10.50
2022-12-20T14:58:30.156Z,10.77
2022-12-20T15:01:03.912Z,10.73
2022-12-20T15:03:31.184Z,10.52
2022-12-20T15:06:00.351Z,10.40
2022-12-20T15:08:30.565Z,11.98
2022-12-20T15:11:01.146Z,10.88
2022-12-20T15:13:34.290Z,10.85
2022-12-20T15:16:15.985Z,10.93
2022-12-20T15:18:43.155Z,11.77
2022-12-20T15:21:14.301Z,11.40
2022-12-20T15:23:48.874Z,11.90
2022-12-20T15:26:17.908Z,12.02
2022-12-20T15:28:45.506Z,13.02
2022-12-20T15:31:14.725Z,11.50
2022-12-20T15:33:43.026Z,13.77
2022-12-20T15:36:18.164Z,12.02
2022-12-20T15:41:33.982Z,13.23
2022-12-20T15:44:05.733Z,13.57
2022-12-20T15:46:32.986Z,12.43
2022-12-20T15:48:59.957Z,13.18
2022-12-20T15:51:34.099Z,13.27
2022-12-20T15:54:03.502Z,12.45
2022-12-20T15:56:30.829Z,12.93
2022-12-20T15:58:57.867Z,12.90
2022-12-20T16:01:39.743Z,11.40
2022-12-20T16:04:16.283Z,13.50
2022-12-20T16:06:44.348Z,14.93
2022-12-20T16:09:11.962Z,14.13
2022-12-20T16:11:39.625Z,15.07
2022-12-20T16:14:06.781Z,14.57
2022-12-20T16:16:36.404Z,15.23
2022-12-20T16:19:03.943Z,14.05
2022-12-20T16:21:36.159Z,12.23
2022-12-20T16:24:03.634Z,13.02
2022-12-20T16:26:30.575Z,13.80
2022-12-20T16:28:57.381Z,14.23
2022-12-20T16:31:31.998Z,12.95
2022-12-20T16:34:01.555Z,14.68
2022-12-20T16:38:56.449Z,16.00
2022-12-20T16:41:30.194Z,14.40
2022-12-20T16:43:59.242Z,15.45
2022-12-20T16:46:28.847Z,14.57
2022-12-20T16:51:26.164Z,15.40
2022-12-20T16:54:18.551Z,16.77
2022-12-20T16:56:47.626Z,17.02
2022-12-20T16:59:23.175Z,15.68
2022-12-20T17:01:54.695Z,17.92
2022-12-20T17:04:22.574Z,17.60
2022-12-20T17:06:49.752Z,16.25
2022-12-20T17:09:17.621Z,17.77
2022-12-20T17:11:45.168Z,17.00
2022-12-20T17:14:13.520Z,18.13
2022-12-20T17:16:41.405Z,18.50
2022-12-20T17:19:10.798Z,18.60
2022-12-20T17:24:31.657Z,19.08
2022-12-20T17:26:58.533Z,17.77
2022-12-20T17:29:25.496Z,21.23
2022-12-20T17:31:52.469Z,18.52
2022-12-20T17:34:21.975Z,19.30
2022-12-20T17:39:16.904Z,18.95
2022-12-20T17:41:44.738Z,19.25
2022-12-20T17:44:20.523Z,20.10
2022-12-20T17:46:48.139Z,19.63
2022-12-20T17:49:15.615Z,18.45
2022-12-20T17:51:42.925Z,20.65
2022-12-20T17:54:18.526Z,19.65
2022-12-20T17:56:45.830Z,19.38
2022-12-20T17:59:14.019Z,19.52
2022-12-20T18:01:42.905Z,22.27
2022-12-20T18:04:12.190Z,21.77
2022-12-20T18:06:41.027Z,19.98
2022-12-20T18:09:14.001Z,19.23
2022-12-20T18:11:41.286Z,20.27
2022-12-20T18:14:08.196Z,19.42
2022-12-20T18:16:35.140Z,21.48
2022-12-20T18:19:02.944Z,21.00
2022-12-20T18:21:29.817Z,21.02
2022-12-20T18:23:57.220Z,21.98
2022-12-20T18:26:27.386Z,20.40
2022-12-20T18:28:56.539Z,19.27
2022-12-20T18:31:25.565Z,19.40
2022-12-20T18:33:57.807Z,20.00
2022-12-20T18:36:30.582Z,20.23
2022-12-20T18:38:59.224Z,24.17
2022-12-20T18:41:28.414Z,22.00
2022-12-20T18:44:00.937Z,18.80
2022-12-20T18:46:28.434Z,20.08
2022-12-20T18:48:57.141Z,19.17
2022-12-20T18:51:26.657Z,21.63
2022-12-20T18:53:55.760Z,19.30
2022-12-20T18:56:29.377Z,20.13
2022-12-20T18:58:57.595Z,20.40
2022-12-20T19:01:27.221Z,20.10
2022-12-20T19:03:55.245Z,20.13
2022-12-20T19:06:23.477Z,21.17
2022-12-20T19:08:50.639Z,19.30
2022-12-20T19:11:23.420Z,20.38
2022-12-20T19:13:53.715Z,20.52
2022-12-20T19:16:23.662Z,20.80
2022-12-20T19:18:51.275Z,21.45
2022-12-20T19:21:24.210Z,19.05
2022-12-20T19:23:54.090Z,19.90
2022-12-20T19:26:22.820Z,18.30
2022-12-20T19:28:50.774Z,23.17
2022-12-20T19:31:23.843Z,18.80
2022-12-20T19:33:59.607Z,19.80
2022-12-20T19:36:30.067Z,20.58
2022-12-20T19:39:01.404Z,20.15
2022-12-20T19:41:32.036Z,17.88
2022-12-20T19:43:59.613Z,22.08
2022-12-20T19:46:29.729Z,20.65
2022-12-20T19:48:58.121Z,20.73
2022-12-20T19:51:26.040Z,23.08
2022-12-20T19:53:54.108Z,21.83
2022-12-20T19:56:30.212Z,23.02
2022-12-20T19:58:57.073Z,22.83
2022-12-20T20:01:26.925Z,22.00
2022-12-20T20:03:56.440Z,21.65
2022-12-20T20:06:25.079Z,21.00
2022-12-20T20:08:51.987Z,22.27
2022-12-20T20:11:19.438Z,19.50
2022-12-20T20:13:46.663Z,20.73
2022-12-20T20:16:20.016Z,22.73
2022-12-20T20:18:49.308Z,23.00
2022-12-20T20:21:20.986Z,24.13
2022-12-20T20:23:48.557Z,23.55
2022-12-20T20:26:18.324Z,23.13
2022-12-20T20:28:45.714Z,22.95
2022-12-20T20:31:15.657Z,23.38
2022-12-20T20:33:43.601Z,21.90
2022-12-20T20:36:14.882Z,23.48
2022-12-20T20:38:42.020Z,22.42
2022-12-20T20:41:09.368Z,25.23
2022-12-20T20:43:39.402Z,22.38
2022-12-20T20:46:08.338Z,24.95
2022-12-20T20:48:35.928Z,25.08
2022-12-20T20:51:02.861Z,23.75
2022-12-20T20:53:33.894Z,24.45
2022-12-20T20:56:02.339Z,23.17
2022-12-20T20:58:29.463Z,25.80
2022-12-20T21:01:01.834Z,26.77
2022-12-20T21:03:30.232Z,27.52
2022-12-20T21:06:34.865Z,24.00
2022-12-20T21:08:45.113Z,28.17
2022-12-20T21:11:12.549Z,23.45
2022-12-20T21:13:39.605Z,30.63
2022-12-20T21:16:11.258Z,28.00
2022-12-20T21:18:38.654Z,31.77
2022-12-20T21:21:10.944Z,31.40
2022-12-20T21:23:38.838Z,30.42
2022-12-20T21:26:06.184Z,34.60
2022-12-20T21:28:35.652Z,31.52
2022-12-20T21:33:30.377Z,34.42
2022-12-20T21:36:04.597Z,33.20
2022-12-20T21:38:31.700Z,39.22
2022-12-20T21:41:07.036Z,37.67
2022-12-20T21:43:34.556Z,37.45
2022-12-20T21:46:01.750Z,36.47
2022-12-20T21:48:29.738Z,39.88
2022-12-20T21:51:10.079Z,37.53
2022-12-20T21:53:50.551Z,42.25
2022-12-20T21:56:18.650Z,45.47
2022-12-20T21:58:45.953Z,43.08
2022-12-20T22:01:15.426Z,41.08
2022-12-20T22:06:10.729Z,46.00
2022-12-20T22:08:37.654Z,47.80
2022-12-20T22:11:07.372Z,48.28
2022-12-20T22:13:41.220Z,47.38
2022-12-20T22:16:21.054Z,41.78
2022-12-20T22:18:50.167Z,37.15
2022-12-20T22:21:20.525Z,42.83
2022-12-20T22:23:47.911Z,33.72
2022-12-20T22:26:17.532Z,39.95
2022-12-20T22:28:50.702Z,42.95
2022-12-20T22:31:18.507Z,40.35
2022-12-20T22:33:45.926Z,40.20
2022-12-20T22:36:15.105Z,37.25
2022-12-20T22:38:43.400Z,36.85
2022-12-20T22:41:11.535Z,37.72
2022-12-20T22:43:39.019Z,34.50
2022-12-20T22:48:50.367Z,38.95
2022-12-20T22:51:18.610Z,38.20
2022-12-20T22:53:47.517Z,37.00
2022-12-20T22:56:16.292Z,39.58
2022-12-20T22:58:43.202Z,39.08
2022-12-20T23:01:12.947Z,36.97
2022-12-20T23:03:40.317Z,39.35
2022-12-20T23:06:10.292Z,40.20
2022-12-20T23:08:37.986Z,41.03
2022-12-20T23:11:31.641Z,43.90
2022-12-20T23:14:17.064Z,43.33
2022-12-20T23:16:44.371Z,44.65
2022-12-20T23:19:11.515Z,43.88
2022-12-20T23:21:56.756Z,47.20
2022-12-20T23:24:23.747Z,45.33
2022-12-20T23:26:50.582Z,43.90
2022-12-20T23:29:17.448Z,49.83
2022-12-20T23:31:44.419Z,42.22
2022-12-20T23:34:11.399Z,48.60
2022-12-20T23:36:38.354Z,53.90
2022-12-20T23:39:05.828Z,52.00
2022-12-20T23:41:32.683Z,48.28
2022-12-20T23:43:59.808Z,49.63
2022-12-20T23:46:27.022Z,48.42
2022-12-20T23:48:54.081Z,42.45
2022-12-20T23:51:22.134Z,44.50
2022-12-20T23:53:51.114Z,36.58
2022-12-20T23:56:20.573Z,47.00
2022-12-20T23:58:52.598Z,44.03
